USPP 090800Z 28005MPS 9999 OVC010 M05/M08 Q1025 R21/390140 NOSIG RMK QFE758
QNH:(hPa/inHg/mmHg)1025 / 30.27 / 769
QFE:(hPa/inHg/mmHg)1010 / 29.83 / 758
Temperature-5
Dew Point-8
Visibility> 10000
Weather
Cloud CoverOVC (1000);
Transition Height1200 m./4400 ft.
Transition LevelFL50
SQUAWK